createdAt,value
2024-05-09T00:00:47.953Z,0.50
2024-05-09T00:03:36.232Z,0.40
2024-05-09T00:06:05.228Z,0.40
2024-05-09T00:08:33.850Z,0.60
2024-05-09T00:11:02.146Z,0.50
2024-05-09T00:13:30.503Z,0.70
2024-05-09T00:15:59.266Z,0.70
2024-05-09T00:18:27.557Z,0.70
2024-05-09T00:20:55.994Z,0.50
2024-05-09T00:23:24.238Z,0.90
2024-05-09T00:25:52.416Z,0.40
2024-05-09T00:28:20.924Z,0.40
2024-05-09T00:30:48.993Z,0.50
2024-05-09T00:33:17.395Z,0.30
2024-05-09T00:35:45.880Z,0.30
2024-05-09T00:38:14.248Z,0.40
2024-05-09T00:40:43.639Z,0.30
2024-05-09T00:43:13.396Z,0.30
2024-05-09T00:45:43.524Z,0.30
2024-05-09T00:48:14.976Z,0.30
2024-05-09T00:50:46.920Z,0.30
2024-05-09T00:53:17.236Z,0.40
2024-05-09T00:55:47.504Z,0.40
2024-05-09T00:58:22.692Z,0.30
2024-05-09T01:00:51.232Z,0.40
2024-05-09T01:03:20.202Z,0.50
2024-05-09T01:05:48.525Z,0.60
2024-05-09T01:08:16.886Z,0.60
2024-05-09T01:10:47.210Z,0.40
2024-05-09T01:13:16.688Z,0.50
2024-05-09T01:15:44.941Z,0.50
2024-05-09T01:18:14.301Z,0.50
2024-05-09T01:20:44.861Z,0.50
2024-05-09T01:23:15.847Z,0.30
2024-05-09T01:25:46.398Z,0.30
2024-05-09T01:28:15.996Z,0.40
2024-05-09T01:30:44.297Z,0.30
2024-05-09T01:33:13.332Z,0.40
2024-05-09T01:35:42.992Z,0.30
2024-05-09T01:38:17.099Z,0.40
2024-05-09T01:40:46.286Z,0.60
2024-05-09T01:43:15.902Z,1.40
2024-05-09T01:45:44.112Z,2.00
2024-05-09T01:48:12.508Z,2.10
2024-05-09T01:50:42.739Z,2.30
2024-05-09T01:53:14.496Z,2.30
2024-05-09T01:55:44.298Z,2.40
2024-05-09T01:58:13.101Z,2.50
2024-05-09T02:00:42.946Z,2.70
2024-05-09T02:03:15.845Z,2.90
2024-05-09T02:05:49.347Z,2.70
2024-05-09T02:08:19.794Z,2.90
2024-05-09T02:10:49.842Z,2.30
2024-05-09T02:13:18.723Z,2.10
2024-05-09T02:15:47.019Z,2.40
2024-05-09T02:18:15.366Z,2.60
2024-05-09T02:20:44.127Z,2.80
2024-05-09T02:23:13.502Z,2.80
2024-05-09T02:25:42.237Z,2.80
2024-05-09T02:28:10.448Z,3.50
2024-05-09T02:30:41.356Z,4.00
2024-05-09T02:33:12.828Z,3.30
2024-05-09T02:35:44.026Z,3.40
2024-05-09T02:38:13.354Z,2.90
2024-05-09T02:40:41.807Z,3.20
2024-05-09T02:43:12.643Z,3.00
2024-05-09T02:45:41.738Z,2.80
2024-05-09T02:48:11.526Z,3.10
2024-05-09T02:50:40.919Z,3.20
2024-05-09T02:53:12.132Z,2.90
2024-05-09T02:55:41.510Z,3.70
2024-05-09T02:58:10.532Z,3.10
2024-05-09T03:00:41.805Z,2.90
2024-05-09T03:03:14.043Z,2.90
2024-05-09T03:05:45.845Z,3.00
2024-05-09T03:08:14.760Z,2.90
2024-05-09T03:10:43.195Z,2.70
2024-05-09T03:13:14.914Z,3.20
2024-05-09T03:18:13.338Z,3.00
2024-05-09T03:20:44.028Z,2.50
2024-05-09T03:23:12.906Z,2.70
2024-05-09T03:25:41.367Z,2.80
2024-05-09T03:28:09.551Z,2.50
2024-05-09T03:30:41.982Z,2.70
2024-05-09T03:33:17.428Z,2.90
2024-05-09T03:35:47.705Z,3.10
2024-05-09T03:38:16.430Z,2.80
2024-05-09T03:40:49.514Z,2.60
2024-05-09T03:43:19.250Z,3.10
2024-05-09T03:45:50.256Z,2.70
2024-05-09T03:48:18.881Z,3.00
2024-05-09T03:50:47.513Z,2.90
2024-05-09T03:53:15.827Z,2.60
2024-05-09T03:55:44.147Z,3.10
2024-05-09T03:58:14.166Z,3.10
2024-05-09T04:00:43.088Z,4.80
2024-05-09T04:03:12.845Z,4.30
2024-05-09T04:05:43.957Z,5.00
2024-05-09T04:08:15.653Z,4.90
2024-05-09T04:10:45.232Z,11.80
2024-05-09T04:13:13.509Z,9.40
2024-05-09T04:15:41.750Z,9.20
2024-05-09T04:18:10.080Z,8.80
2024-05-09T04:20:40.591Z,8.70
2024-05-09T04:23:14.612Z,7.30
2024-05-09T04:25:45.325Z,7.90
2024-05-09T04:28:14.520Z,7.60
2024-05-09T04:30:43.447Z,7.60
2024-05-09T04:33:13.828Z,8.00
2024-05-09T04:35:43.784Z,5.00
2024-05-09T04:38:13.978Z,3.60
2024-05-09T04:40:43.135Z,3.90
2024-05-09T04:43:16.032Z,2.80
2024-05-09T04:45:44.512Z,2.00
2024-05-09T04:48:13.110Z,1.30
2024-05-09T04:50:41.786Z,0.70
2024-05-09T04:53:14.816Z,1.00
2024-05-09T04:55:43.233Z,0.40
2024-05-09T04:58:11.750Z,0.50
2024-05-09T05:00:41.392Z,0.40
2024-05-09T05:03:14.233Z,0.40
2024-05-09T05:05:46.183Z,0.40
2024-05-09T05:08:16.454Z,0.50
2024-05-09T05:10:47.157Z,0.50
2024-05-09T05:13:20.782Z,0.70
2024-05-09T05:15:53.492Z,0.30
2024-05-09T05:18:22.586Z,0.40
2024-05-09T05:20:51.454Z,0.40
2024-05-09T05:23:20.828Z,0.50
2024-05-09T05:25:52.103Z,0.40
2024-05-09T05:28:20.615Z,0.50
2024-05-09T05:30:48.789Z,0.60
2024-05-09T05:33:20.042Z,0.90
2024-05-09T05:35:48.636Z,0.80
2024-05-09T05:38:16.837Z,0.90
2024-05-09T05:40:44.979Z,0.90
2024-05-09T05:43:17.921Z,1.10
2024-05-09T05:45:46.787Z,1.30
2024-05-09T05:48:16.701Z,1.10
2024-05-09T05:50:45.626Z,1.50
2024-05-09T05:53:14.257Z,1.20
2024-05-09T05:55:42.590Z,1.50
2024-05-09T05:58:14.651Z,1.20
2024-05-09T06:00:43.935Z,1.70
2024-05-09T06:03:13.538Z,1.90
2024-05-09T06:05:48.544Z,2.10
2024-05-09T06:08:16.860Z,2.00
2024-05-09T06:10:45.382Z,2.20
2024-05-09T06:13:14.463Z,2.00
2024-05-09T06:15:43.604Z,1.80
2024-05-09T06:18:13.853Z,2.60
2024-05-09T06:20:43.810Z,2.00
2024-05-09T06:23:14.599Z,1.60
2024-05-09T06:25:43.742Z,3.00
2024-05-09T06:28:11.982Z,5.10
2024-05-09T06:30:42.210Z,3.20
2024-05-09T06:33:13.896Z,3.10
2024-05-09T06:35:46.585Z,3.60
2024-05-09T06:38:14.983Z,3.20
2024-05-09T06:40:44.457Z,2.50
2024-05-09T06:43:15.034Z,2.60
2024-05-09T06:45:45.930Z,2.30
2024-05-09T06:48:14.605Z,2.30
2024-05-09T06:50:43.017Z,1.90
2024-05-09T06:53:14.793Z,2.20
2024-05-09T06:55:43.162Z,1.40
2024-05-09T06:58:11.471Z,1.80
2024-05-09T07:00:41.519Z,3.30
2024-05-09T07:03:13.515Z,2.00
2024-05-09T07:05:44.598Z,1.90
2024-05-09T07:08:14.576Z,1.70
2024-05-09T07:10:42.903Z,1.70
2024-05-09T07:13:12.658Z,1.80
2024-05-09T07:15:41.894Z,1.60
2024-05-09T07:18:17.282Z,2.10
2024-05-09T07:20:48.516Z,1.50
2024-05-09T07:23:18.050Z,1.80
2024-05-09T07:25:46.637Z,3.20
2024-05-09T07:28:16.844Z,4.60
2024-05-09T07:30:45.899Z,1.90
2024-05-09T07:33:19.545Z,3.00
2024-05-09T07:35:48.621Z,2.40
2024-05-09T07:38:16.868Z,2.00
2024-05-09T07:40:45.401Z,2.10
2024-05-09T07:43:16.665Z,2.00
2024-05-09T07:45:52.276Z,1.80
2024-05-09T07:52:38.952Z,1.70
2024-05-09T07:53:48.009Z,1.80
2024-05-09T07:56:22.407Z,2.10
2024-05-09T07:58:56.053Z,2.20
2024-05-09T08:01:26.372Z,1.80
2024-05-09T08:03:55.535Z,2.00
2024-05-09T08:06:24.163Z,2.00
2024-05-09T08:08:52.610Z,1.80
2024-05-09T08:11:20.929Z,2.20
2024-05-09T08:13:49.099Z,1.50
2024-05-09T08:16:17.476Z,2.00
2024-05-09T08:18:45.709Z,6.80
2024-05-09T08:21:14.028Z,6.20
2024-05-09T08:23:42.199Z,73.10
2024-05-09T08:26:10.433Z,27.90
2024-05-09T08:28:38.542Z,8.80
2024-05-09T08:31:07.334Z,30.50
2024-05-09T08:33:36.049Z,16.30
2024-05-09T08:36:04.730Z,40.20
2024-05-09T08:38:32.893Z,87.60
2024-05-09T08:41:04.101Z,17.30
2024-05-09T08:43:32.434Z,15.90
2024-05-09T08:46:04.434Z,14.70
2024-05-09T08:48:36.491Z,58.90
2024-05-09T08:51:06.241Z,58.50
2024-05-09T08:53:34.518Z,29.90
2024-05-09T08:56:02.821Z,66.60
2024-05-09T08:58:34.943Z,57.00
2024-05-09T09:03:36.839Z,7.50
2024-05-09T09:06:18.106Z,22.80
2024-05-09T09:08:47.415Z,8.50
2024-05-09T09:11:15.611Z,103.20
2024-05-09T09:13:43.864Z,51.30
2024-05-09T09:16:12.732Z,25.60
2024-05-09T09:18:44.769Z,43.60
2024-05-09T09:21:13.102Z,27.40
2024-05-09T09:23:41.571Z,14.70
2024-05-09T09:26:09.717Z,36.00
2024-05-09T09:28:38.126Z,75.20
2024-05-09T09:31:06.428Z,22.20
2024-05-09T09:33:35.602Z,14.00
2024-05-09T09:36:06.282Z,4.70
2024-05-09T09:38:40.582Z,2.50
2024-05-09T09:43:42.573Z,4.40
2024-05-09T09:46:12.981Z,14.90
2024-05-09T09:48:42.402Z,2.00
2024-05-09T09:51:11.481Z,2.20
2024-05-09T09:53:40.769Z,4.00
2024-05-09T09:56:10.421Z,4.10
2024-05-09T09:58:40.258Z,4.90
2024-05-09T10:01:08.802Z,24.30
2024-05-09T10:03:37.691Z,7.70
2024-05-09T10:06:07.669Z,4.80
2024-05-09T10:08:36.608Z,24.70
2024-05-09T10:11:05.819Z,4.10
2024-05-09T10:13:34.906Z,15.80
2024-05-09T10:16:10.817Z,55.20
2024-05-09T10:18:40.765Z,30.40
2024-05-09T10:21:20.098Z,19.40
2024-05-09T10:24:02.019Z,18.70
2024-05-09T10:26:38.305Z,47.50
2024-05-09T10:29:16.077Z,23.90
2024-05-09T10:31:46.261Z,9.20
2024-05-09T10:34:23.106Z,4.00
2024-05-09T10:36:53.719Z,13.60
2024-05-09T10:39:22.177Z,7.00
2024-05-09T10:41:50.435Z,7.10
2024-05-09T10:44:18.746Z,5.00
2024-05-09T10:46:47.286Z,2.60
2024-05-09T10:49:15.824Z,2.90
2024-05-09T10:51:45.040Z,2.20
2024-05-09T10:54:13.372Z,2.80
2024-05-09T10:56:42.067Z,3.70
2024-05-09T10:59:12.826Z,2.70
2024-05-09T11:01:41.407Z,4.50
2024-05-09T11:04:10.157Z,2.70
2024-05-09T11:06:39.384Z,3.90
2024-05-09T11:09:07.707Z,3.90
2024-05-09T11:11:36.045Z,3.10
2024-05-09T11:14:15.073Z,2.90
2024-05-09T11:16:43.283Z,1.80
2024-05-09T11:19:14.898Z,2.00
2024-05-09T11:21:43.277Z,2.90
2024-05-09T11:24:12.066Z,1.70
2024-05-09T11:26:40.191Z,1.60
2024-05-09T11:29:08.358Z,1.80
2024-05-09T11:31:46.945Z,1.40
2024-05-09T11:34:15.537Z,1.50
2024-05-09T11:36:43.837Z,1.60
2024-05-09T11:39:14.471Z,1.50
2024-05-09T11:41:42.775Z,1.70
2024-05-09T11:44:11.403Z,1.60
2024-05-09T11:46:39.663Z,1.50
2024-05-09T11:49:09.512Z,2.80
2024-05-09T11:51:37.867Z,1.60
2024-05-09T11:54:06.056Z,1.70
2024-05-09T11:56:34.478Z,3.20
2024-05-09T11:59:03.398Z,1.70
2024-05-09T12:01:31.838Z,1.60
2024-05-09T12:04:00.488Z,2.00
2024-05-09T12:06:29.589Z,2.50
2024-05-09T12:08:57.981Z,1.90
2024-05-09T12:11:26.139Z,1.70
2024-05-09T12:13:54.399Z,2.00
2024-05-09T12:16:22.948Z,2.10
2024-05-09T12:18:51.278Z,1.90
2024-05-09T12:21:19.589Z,1.80
2024-05-09T12:23:47.861Z,3.50
2024-05-09T12:26:16.528Z,4.50
2024-05-09T12:28:44.700Z,4.20
2024-05-09T12:31:13.035Z,3.60
2024-05-09T12:33:41.219Z,14.70
2024-05-09T12:36:09.450Z,5.50
2024-05-09T12:38:37.628Z,18.60
2024-05-09T12:41:05.855Z,3.70
2024-05-09T12:43:34.074Z,3.00
2024-05-09T12:46:03.407Z,2.10
2024-05-09T12:48:31.961Z,2.10
2024-05-09T12:51:00.228Z,3.10
2024-05-09T12:53:28.451Z,3.40
2024-05-09T12:56:00.223Z,3.10
2024-05-09T12:58:31.028Z,5.00
2024-05-09T13:00:59.279Z,4.40
2024-05-09T13:03:27.635Z,2.40
2024-05-09T13:05:55.828Z,1.90
2024-05-09T13:08:24.269Z,6.80
2024-05-09T13:10:52.509Z,2.20
2024-05-09T13:13:21.043Z,1.50
2024-05-09T13:15:49.422Z,1.50
2024-05-09T13:18:17.874Z,2.30
2024-05-09T13:20:46.088Z,2.10
2024-05-09T13:23:14.174Z,1.90
2024-05-09T13:25:42.286Z,2.00
2024-05-09T13:28:10.654Z,6.50
2024-05-09T13:30:41.613Z,2.70
2024-05-09T13:33:12.410Z,2.20
2024-05-09T13:35:47.096Z,1.50
2024-05-09T13:38:20.031Z,2.60
2024-05-09T13:40:49.358Z,2.70
2024-05-09T13:43:18.718Z,2.50
2024-05-09T13:45:47.756Z,2.30
2024-05-09T13:48:16.157Z,4.70
2024-05-09T13:50:44.387Z,3.00
2024-05-09T13:53:12.487Z,2.60
2024-05-09T13:55:41.019Z,3.00
2024-05-09T13:58:09.743Z,7.30
2024-05-09T14:00:46.054Z,3.40
2024-05-09T14:03:19.832Z,2.50
2024-05-09T14:08:21.746Z,20.70
2024-05-09T14:10:50.675Z,4.70
2024-05-09T14:13:20.035Z,7.40
2024-05-09T14:15:48.762Z,4.30
2024-05-09T14:18:18.125Z,7.40
2024-05-09T14:20:46.219Z,11.50
2024-05-09T14:23:15.003Z,5.90
2024-05-09T14:25:44.163Z,4.90
2024-05-09T14:28:13.695Z,33.70
2024-05-09T14:30:42.963Z,6.10
2024-05-09T14:33:11.986Z,4.60
2024-05-09T14:35:40.254Z,3.30
2024-05-09T14:38:09.723Z,4.40
2024-05-09T14:40:42.468Z,3.20
2024-05-09T14:43:13.970Z,7.20
2024-05-09T14:45:43.713Z,19.00
2024-05-09T14:48:15.048Z,11.70
2024-05-09T14:50:43.752Z,6.20
2024-05-09T14:53:13.743Z,394.40
2024-05-09T14:55:43.577Z,458.70
2024-05-09T14:58:13.324Z,240.20
2024-05-09T15:00:46.586Z,137.60
2024-05-09T15:03:22.493Z,169.90
2024-05-09T15:05:52.263Z,77.20
2024-05-09T15:08:20.848Z,82.30
2024-05-09T15:10:52.251Z,51.80
2024-05-09T15:13:21.279Z,27.50
2024-05-09T15:15:51.095Z,10.30
2024-05-09T15:18:19.716Z,16.10
2024-05-09T15:20:48.311Z,20.10
2024-05-09T15:23:16.719Z,15.60
2024-05-09T15:25:45.173Z,13.50
2024-05-09T15:28:13.599Z,8.10
2024-05-09T15:30:45.237Z,10.00
2024-05-09T15:33:15.117Z,27.40
2024-05-09T15:35:46.946Z,13.10
2024-05-09T15:38:16.123Z,13.30
2024-05-09T15:40:44.364Z,7.80
2024-05-09T15:43:12.744Z,7.90
2024-05-09T15:45:41.647Z,25.30
2024-05-09T15:48:10.884Z,13.20
2024-05-09T15:50:41.816Z,8.90
2024-05-09T15:53:13.304Z,14.90
2024-05-09T15:55:43.232Z,17.40
2024-05-09T15:58:12.513Z,19.10
2024-05-09T16:00:44.751Z,11.50
2024-05-09T16:03:15.180Z,9.20
2024-05-09T16:05:45.531Z,9.70
2024-05-09T16:08:15.748Z,11.40
2024-05-09T16:10:45.900Z,10.10
2024-05-09T16:13:16.173Z,6.90
2024-05-09T16:15:45.160Z,9.80
2024-05-09T16:18:13.604Z,14.00
2024-05-09T16:20:51.038Z,9.60
2024-05-09T16:23:19.223Z,8.90
2024-05-09T16:25:47.809Z,5.00
2024-05-09T16:28:16.880Z,3.60
2024-05-09T16:30:45.154Z,3.90
2024-05-09T16:33:13.603Z,4.60
2024-05-09T16:35:41.926Z,3.40
2024-05-09T16:38:10.295Z,7.90
2024-05-09T16:40:40.857Z,4.90
2024-05-09T16:43:12.148Z,3.50
2024-05-09T16:45:45.092Z,3.70
2024-05-09T16:48:14.038Z,5.90
2024-05-09T16:50:42.825Z,6.30
2024-05-09T16:53:11.200Z,28.80
2024-05-09T16:55:39.549Z,9.40
2024-05-09T16:58:16.244Z,4.40
2024-05-09T17:00:44.746Z,4.30
2024-05-09T17:03:15.272Z,4.00
2024-05-09T17:05:46.766Z,4.80
2024-05-09T17:08:17.896Z,3.80
2024-05-09T17:10:48.643Z,4.50
2024-05-09T17:13:18.523Z,4.00
2024-05-09T17:15:47.337Z,3.60
2024-05-09T17:18:16.397Z,3.10
2024-05-09T17:20:44.555Z,3.10
2024-05-09T17:23:14.052Z,3.90
2024-05-09T17:25:43.552Z,4.90
2024-05-09T17:28:12.464Z,4.50
2024-05-09T17:30:42.297Z,3.60
2024-05-09T17:33:12.895Z,3.70
2024-05-09T17:35:41.873Z,3.50
2024-05-09T17:38:10.242Z,3.00
2024-05-09T17:40:39.340Z,3.70
2024-05-09T17:43:09.990Z,3.70
2024-05-09T17:45:41.075Z,4.90
2024-05-09T17:48:11.934Z,5.00
2024-05-09T17:50:42.007Z,4.70
2024-05-09T17:53:10.859Z,6.00
2024-05-09T17:55:40.436Z,6.00
2024-05-09T17:58:09.787Z,6.90
2024-05-09T18:00:41.158Z,8.70
2024-05-09T18:03:11.918Z,9.30
2024-05-09T18:05:43.434Z,10.10
2024-05-09T18:08:13.236Z,8.40
2024-05-09T18:10:42.172Z,8.90
2024-05-09T18:13:12.282Z,10.10
2024-05-09T18:15:42.002Z,9.40
2024-05-09T18:18:11.932Z,9.60
2024-05-09T18:20:44.414Z,10.30
2024-05-09T18:23:16.667Z,10.20
2024-05-09T18:25:47.452Z,10.20
2024-05-09T18:28:17.055Z,11.00
2024-05-09T18:30:46.417Z,9.90
2024-05-09T18:33:16.067Z,9.30
2024-05-09T18:35:45.404Z,8.00
2024-05-09T18:38:14.032Z,8.40
2024-05-09T18:40:44.751Z,8.30
2024-05-09T18:45:43.529Z,10.00
2024-05-09T18:48:13.207Z,10.50
2024-05-09T18:50:41.884Z,11.50
2024-05-09T18:53:12.403Z,10.50
2024-05-09T18:55:42.439Z,11.90
2024-05-09T18:58:10.808Z,11.70
2024-05-09T19:00:41.679Z,12.10
2024-05-09T19:03:14.030Z,13.50
2024-05-09T19:05:45.381Z,12.80
2024-05-09T19:08:15.780Z,11.40
2024-05-09T19:10:45.625Z,11.50
2024-05-09T19:13:14.965Z,11.00
2024-05-09T19:15:44.158Z,10.00
2024-05-09T19:18:14.037Z,8.10
2024-05-09T19:20:44.000Z,9.40
2024-05-09T19:23:12.616Z,10.30
2024-05-09T19:25:40.870Z,11.90
2024-05-09T19:28:09.441Z,12.30
2024-05-09T19:30:41.276Z,10.40
2024-05-09T19:33:14.932Z,9.20
2024-05-09T19:35:43.811Z,8.10
2024-05-09T19:38:12.837Z,11.30
2024-05-09T19:40:41.270Z,12.30
2024-05-09T19:43:09.812Z,13.60
2024-05-09T19:45:38.969Z,13.20
2024-05-09T19:48:07.989Z,14.20
2024-05-09T19:50:42.165Z,12.10
2024-05-09T19:53:14.686Z,14.30
2024-05-09T19:55:43.674Z,13.90
2024-05-09T19:58:12.808Z,12.50
2024-05-09T20:00:43.441Z,11.80
2024-05-09T20:03:15.090Z,12.40
2024-05-09T20:05:46.753Z,10.50
2024-05-09T20:08:16.351Z,10.30
2024-05-09T20:10:44.915Z,10.00
2024-05-09T20:13:13.768Z,9.30
2024-05-09T20:15:42.412Z,8.80
2024-05-09T20:18:10.952Z,8.80
2024-05-09T20:20:42.576Z,7.20
2024-05-09T20:23:13.149Z,7.60
2024-05-09T20:25:42.140Z,8.00
2024-05-09T20:28:10.860Z,7.90
2024-05-09T20:30:39.639Z,7.90
2024-05-09T20:33:09.255Z,8.40
2024-05-09T20:35:38.317Z,7.50
2024-05-09T20:38:06.510Z,8.20
2024-05-09T20:40:37.900Z,8.80
2024-05-09T20:43:09.675Z,7.40
2024-05-09T20:45:39.080Z,8.00
2024-05-09T20:48:09.223Z,9.80
2024-05-09T20:50:41.048Z,8.10
2024-05-09T20:53:13.194Z,9.60
2024-05-09T20:55:45.798Z,9.70
2024-05-09T20:58:14.576Z,8.80
2024-05-09T21:00:45.452Z,7.80
2024-05-09T21:03:16.947Z,8.40
2024-05-09T21:05:47.631Z,8.10
2024-05-09T21:08:16.491Z,7.70
2024-05-09T21:10:44.926Z,7.70
2024-05-09T21:13:13.319Z,9.40
2024-05-09T21:15:41.756Z,8.70
2024-05-09T21:18:10.258Z,7.80
2024-05-09T21:20:38.558Z,7.50
2024-05-09T21:23:06.778Z,7.80
2024-05-09T21:25:35.111Z,7.90
2024-05-09T21:28:03.817Z,7.10
2024-05-09T21:30:40.760Z,7.40
2024-05-09T21:33:13.575Z,7.30
2024-05-09T21:35:44.439Z,6.40
2024-05-09T21:38:14.533Z,7.80
2024-05-09T21:40:44.349Z,7.20
2024-05-09T21:43:13.112Z,8.80
2024-05-09T21:45:41.547Z,7.80
2024-05-09T21:48:12.082Z,8.70
2024-05-09T21:50:42.273Z,7.30
2024-05-09T21:53:12.405Z,6.00
2024-05-09T21:55:44.792Z,7.60
2024-05-09T21:58:16.446Z,8.30
2024-05-09T22:00:46.360Z,8.50
2024-05-09T22:03:15.183Z,8.10
2024-05-09T22:05:45.005Z,9.80
2024-05-09T22:08:13.846Z,10.30
2024-05-09T22:10:42.752Z,13.60
2024-05-09T22:13:11.230Z,15.40
2024-05-09T22:15:40.603Z,11.80
2024-05-09T22:18:10.850Z,9.70
2024-05-09T22:20:45.240Z,10.10
2024-05-09T22:23:15.504Z,9.60
2024-05-09T22:25:43.994Z,10.00
2024-05-09T22:28:14.905Z,9.20
2024-05-09T22:30:45.565Z,9.30
2024-05-09T22:33:15.045Z,10.60
2024-05-09T22:35:43.384Z,10.80
2024-05-09T22:38:11.676Z,12.70
2024-05-09T22:40:47.345Z,10.70
2024-05-09T22:43:22.629Z,9.70
2024-05-09T22:45:54.880Z,9.50
2024-05-09T22:48:24.807Z,11.10
2024-05-09T22:50:54.202Z,9.50
2024-05-09T22:53:24.790Z,8.50
2024-05-09T22:55:54.078Z,9.80
2024-05-09T22:58:23.567Z,7.90
2024-05-09T23:00:52.444Z,9.40
2024-05-09T23:03:22.635Z,11.30
2024-05-09T23:05:52.984Z,10.70
2024-05-09T23:08:21.364Z,12.50
2024-05-09T23:10:50.063Z,14.30
2024-05-09T23:13:18.628Z,14.90
2024-05-09T23:15:47.185Z,13.40
2024-05-09T23:18:15.542Z,12.30
2024-05-09T23:20:43.853Z,12.20
2024-05-09T23:23:12.522Z,12.70
2024-05-09T23:25:41.540Z,11.00
2024-05-09T23:28:11.024Z,9.70
2024-05-09T23:30:41.004Z,10.50
2024-05-09T23:33:14.755Z,9.70
2024-05-09T23:35:44.422Z,8.70
2024-05-09T23:38:13.713Z,8.00
2024-05-09T23:40:43.127Z,8.30
2024-05-09T23:43:14.290Z,7.10
2024-05-09T23:45:43.323Z,6.60
2024-05-09T23:48:11.944Z,6.80
2024-05-09T23:50:41.160Z,5.80
2024-05-09T23:53:10.732Z,5.60
2024-05-09T23:55:39.939Z,5.30
2024-05-09T23:58:09.891Z,5.00
